Time;durP1;ratioP1;P1;durP2;ratioP2;P2;SDS_P1;SDS_P2;PMS_P1;PMS_P2;Temp;Humidity;BMP_temperature;BMP_pressure;BME280_temperature;BME280_humidity;BME280_pressure;Samples;Min_cycle;Max_cycle;Signal;HPM_P1;HPM_P2
2021/09/25 00:00:09;;;;;;;6.38;3.92;;;;;;;15.10;77.58;99662.72;5026846;28;20564;-71
2021/09/25 00:02:35;;;;;;;6.65;4.63;;;;;;;15.08;77.46;99664.63;5026192;28;20044;-71
2021/09/25 00:05:01;;;;;;;6.47;5.03;;;;;;;15.05;77.65;99670.16;5028172;28;20114;-71
2021/09/25 00:07:26;;;;;;;6.45;5.22;;;;;;;14.99;77.76;99664.34;5010576;28;20516;-69
2021/09/25 00:09:51;;;;;;;8.00;5.03;;;;;;;14.95;78.05;99660.19;5027835;28;20037;-71
2021/09/25 00:12:17;;;;;;;6.30;4.78;;;;;;;14.90;78.38;99664.97;5025930;28;20041;-71
2021/09/25 00:14:43;;;;;;;8.45;5.70;;;;;;;14.86;78.47;99663.47;5027993;28;20033;-70
2021/09/25 00:17:10;;;;;;;5.82;4.57;;;;;;;14.86;78.49;99667.94;5029195;28;20033;-70
2021/09/25 00:19:37;;;;;;;7.25;5.10;;;;;;;14.84;78.38;99662.75;5029941;28;20041;-69
2021/09/25 00:22:03;;;;;;;10.43;6.03;;;;;;;14.84;78.35;99660.09;5029720;28;20039;-69
2021/09/25 00:24:29;;;;;;;9.23;5.05;;;;;;;14.83;78.33;99655.72;5031208;28;20121;-69
2021/09/25 00:26:55;;;;;;;7.63;5.65;;;;;;;14.79;78.43;99655.09;5031578;28;20116;-70
2021/09/25 00:29:20;;;;;;;6.40;5.25;;;;;;;14.78;79.20;99661.34;5031124;28;20038;-69
2021/09/25 00:31:46;;;;;;;7.30;5.60;;;;;;;14.73;78.94;99659.97;5030764;28;20505;-70
2021/09/25 00:34:12;;;;;;;6.07;4.63;;;;;;;14.72;78.90;99653.81;5031522;28;20057;-71
2021/09/25 00:36:37;;;;;;;7.00;5.07;;;;;;;14.73;78.86;99660.81;5031193;28;20037;-71
2021/09/25 00:39:03;;;;;;;7.22;5.00;;;;;;;14.70;78.89;99658.38;5031016;28;20022;-71
2021/09/25 00:41:28;;;;;;;8.80;6.97;;;;;;;14.71;78.82;99665.38;5029596;28;20040;-70
2021/09/25 00:43:54;;;;;;;7.75;5.43;;;;;;;14.72;78.67;99671.56;5031055;28;20026;-69
2021/09/25 00:46:21;;;;;;;6.82;5.10;;;;;;;14.76;78.45;99663.25;5032872;28;20619;-70
2021/09/25 00:48:47;;;;;;;6.00;4.75;;;;;;;14.76;78.32;99657.94;5032255;28;20037;-72
2021/09/25 00:51:13;;;;;;;5.90;4.63;;;;;;;14.77;78.43;99661.47;5032107;28;20037;-70
2021/09/25 00:53:39;;;;;;;7.65;4.45;;;;;;;14.75;78.26;99655.41;5031259;28;20036;-70
2021/09/25 00:56:06;;;;;;;10.38;6.25;;;;;;;14.75;78.19;99660.72;5032455;28;20052;-71
2021/09/25 00:58:31;;;;;;;7.95;4.95;;;;;;;14.74;77.92;99673.16;5033199;28;20113;-71
2021/09/25 01:00:57;;;;;;;7.63;6.25;;;;;;;14.73;78.12;99667.94;5008044;28;20131;-70
2021/09/25 01:03:22;;;;;;;9.60;5.38;;;;;;;14.72;78.36;99675.06;5031622;28;20106;-71
2021/09/25 01:05:47;;;;;;;6.45;4.65;;;;;;;14.76;78.54;99673.03;5031872;28;20041;-70
2021/09/25 01:08:14;;;;;;;10.40;5.65;;;;;;;14.79;78.11;99672.81;5031022;28;20563;-71
2021/09/25 01:10:41;;;;;;;8.82;5.15;;;;;;;14.78;77.83;99671.97;5031155;28;20041;-71
2021/09/25 01:13:06;;;;;;;7.25;5.32;;;;;;;14.76;77.89;99671.22;5029763;28;20087;-70
2021/09/25 01:15:32;;;;;;;8.98;5.35;;;;;;;14.72;77.91;99669.75;5031147;28;20041;-70
2021/09/25 01:17:57;;;;;;;7.97;4.93;;;;;;;14.73;78.18;99671.44;5030504;28;20033;-70
2021/09/25 01:20:23;;;;;;;6.13;5.32;;;;;;;14.76;78.05;99665.91;5030416;28;20036;-70
2021/09/25 01:22:49;;;;;;;7.25;4.65;;;;;;;14.79;77.48;99668.38;5031160;28;20040;-70
2021/09/25 01:25:14;;;;;;;8.43;5.68;;;;;;;14.75;77.60;99661.56;5030982;28;20029;-71
2021/09/25 01:27:40;;;;;;;8.50;6.53;;;;;;;14.72;77.81;99664.44;5029716;28;20045;-70
2021/09/25 01:30:10;;;;;;;7.00;5.38;;;;;;;14.75;77.85;99666.88;5031024;28;20033;-70
2021/09/25 01:32:35;;;;;;;7.43;5.72;;;;;;;14.71;77.61;99665.38;5030159;28;20038;-69
2021/09/25 01:35:01;;;;;;;7.38;6.03;;;;;;;14.71;77.71;99664.53;5030607;28;20400;-70
2021/09/25 01:37:26;;;;;;;7.43;5.63;;;;;;;14.70;77.75;99671.66;5030789;28;20038;-71
2021/09/25 01:39:51;;;;;;;8.43;5.47;;;;;;;14.69;77.35;99672.59;5030758;28;20042;-71
2021/09/25 01:42:17;;;;;;;15.05;6.90;;;;;;;14.63;77.89;99667.72;5031050;28;20045;-69
2021/09/25 01:44:42;;;;;;;6.90;5.38;;;;;;;14.58;78.12;99664.53;5032906;28;20052;-69
2021/09/25 01:47:08;;;;;;;9.77;5.80;;;;;;;14.50;78.10;99670.31;5031487;28;20405;-69
2021/09/25 01:49:33;;;;;;;10.45;6.25;;;;;;;14.45;78.23;99667.13;5031025;28;20030;-70
2021/09/25 01:51:58;;;;;;;9.15;6.10;;;;;;;14.41;78.40;99660.31;5027904;28;20034;-69
2021/09/25 01:54:24;;;;;;;9.80;6.07;;;;;;;14.37;78.72;99662.34;5013924;28;20087;-70
2021/09/25 01:56:49;;;;;;;9.65;5.93;;;;;;;14.30;78.72;99655.75;5029286;28;20060;-71
2021/09/25 01:59:15;;;;;;;8.55;5.60;;;;;;;14.26;78.69;99669.31;5029776;28;20478;-70
2021/09/25 02:01:40;;;;;;;9.27;7.43;;;;;;;14.22;78.92;99660.69;5029082;28;20080;-71
2021/09/25 02:04:05;;;;;;;11.57;5.80;;;;;;;14.20;79.54;99661.75;5028325;28;20099;-69
2021/09/25 02:06:31;;;;;;;9.80;6.78;;;;;;;14.16;79.07;99671.72;5029756;28;20049;-70
2021/09/25 02:08:57;;;;;;;10.30;5.85;;;;;;;14.12;79.22;99668.41;5029640;28;20053;-71
2021/09/25 02:11:23;;;;;;;7.93;5.28;;;;;;;14.16;79.40;99671.72;5028380;28;20052;-69
2021/09/25 02:13:49;;;;;;;7.03;5.05;;;;;;;14.19;78.72;99671.50;5029923;28;20064;-71
2021/09/25 02:16:15;;;;;;;11.55;5.25;;;;;;;14.25;79.01;99671.13;5027278;28;20436;-69
2021/09/25 02:18:40;;;;;;;9.90;5.68;;;;;;;14.27;78.28;99669.19;5028721;28;20041;-70
2021/09/25 02:21:06;;;;;;;9.75;5.63;;;;;;;14.25;78.83;99668.47;5026767;28;20051;-71
2021/09/25 02:23:33;;;;;;;10.25;6.50;;;;;;;14.23;78.37;99669.50;5029064;28;20041;-70
2021/09/25 02:26:00;;;;;;;8.88;5.75;;;;;;;14.15;78.79;99664.69;5029097;28;20136;-70
2021/09/25 02:28:26;;;;;;;7.07;5.88;;;;;;;14.09;79.50;99670.41;5027506;28;20041;-71
2021/09/25 02:30:51;;;;;;;10.55;6.82;;;;;;;14.02;79.41;99659.34;5030478;28;20045;-73
2021/09/25 02:33:16;;;;;;;10.00;5.72;;;;;;;14.01;79.80;99662.13;5032285;28;20880;-71
2021/09/25 02:35:42;;;;;;;10.07;5.63;;;;;;;14.01;79.82;99659.47;5011237;28;20033;-72
2021/09/25 02:38:08;;;;;;;8.25;6.13;;;;;;;14.02;79.42;99650.56;5029111;28;20045;-70
2021/09/25 02:40:34;;;;;;;9.38;6.03;;;;;;;14.02;79.30;99654.06;5028808;28;20619;-70
2021/09/25 02:43:00;;;;;;;12.93;6.30;;;;;;;14.05;79.05;99656.50;5026978;28;20039;-70
2021/09/25 02:45:25;;;;;;;9.07;7.00;;;;;;;14.00;79.02;99650.66;5027464;28;20057;-70
2021/09/25 02:47:51;;;;;;;7.30;5.25;;;;;;;13.99;79.73;99659.56;5030033;28;20041;-71
2021/09/25 02:50:18;;;;;;;8.38;5.32;;;;;;;14.00;78.97;99649.81;5029351;28;20052;-71
2021/09/25 02:52:44;;;;;;;7.43;5.15;;;;;;;14.03;78.89;99657.53;5027971;28;20041;-70
2021/09/25 02:55:11;;;;;;;8.05;6.00;;;;;;;14.06;79.01;99654.72;5028613;28;20030;-69
2021/09/25 02:57:36;;;;;;;9.48;5.47;;;;;;;14.07;78.26;99661.69;5026624;28;20555;-69
2021/09/25 03:00:06;;;;;;;10.35;5.57;;;;;;;14.08;79.15;99653.66;5028393;28;20029;-69
2021/09/25 03:02:31;;;;;;;10.50;7.07;;;;;;;14.07;78.86;99656.41;5028220;28;20586;-70
2021/09/25 03:04:56;;;;;;;10.75;5.75;;;;;;;14.04;78.47;99661.91;5028711;28;20037;-69
2021/09/25 03:07:22;;;;;;;7.13;5.68;;;;;;;14.01;78.33;99655.00;5027283;28;20047;-69
2021/09/25 03:09:49;;;;;;;11.23;6.35;;;;;;;14.00;79.02;99652.44;5028686;28;20037;-69
2021/09/25 03:12:15;;;;;;;10.38;6.30;;;;;;;13.95;79.14;99648.31;5028059;28;20038;-70
2021/09/25 03:14:41;;;;;;;10.75;6.28;;;;;;;13.93;79.37;99636.09;5028303;28;20041;-70
2021/09/25 03:17:06;;;;;;;8.20;6.00;;;;;;;13.93;79.69;99629.00;5027168;28;20030;-70
2021/09/25 03:19:31;;;;;;;14.68;8.35;;;;;;;13.96;79.65;99627.97;5028498;28;20041;-70
2021/09/25 03:21:57;;;;;;;9.75;7.20;;;;;;;13.98;79.86;99635.78;5026099;28;20481;-69
2021/09/25 03:24:22;;;;;;;9.70;6.35;;;;;;;13.97;79.50;99634.94;5028929;28;20057;-70
2021/09/25 03:26:47;;;;;;;10.43;7.05;;;;;;;14.02;79.60;99642.59;5027386;28;20493;-71
2021/09/25 03:29:13;;;;;;;9.40;6.30;;;;;;;14.05;79.45;99635.28;5026674;28;20099;-70
2021/09/25 03:31:38;;;;;;;9.00;6.40;;;;;;;14.06;78.88;99625.56;5027705;28;20034;-70
2021/09/25 03:34:04;;;;;;;10.40;5.90;;;;;;;14.07;79.01;99630.75;5027797;28;20041;-71
2021/09/25 03:36:29;;;;;;;9.18;6.68;;;;;;;14.04;79.28;99627.47;5026743;28;20544;-70
2021/09/25 03:38:54;;;;;;;8.98;6.05;;;;;;;14.06;79.40;99633.50;5010026;28;20029;-71
2021/09/25 03:41:20;;;;;;;9.82;6.25;;;;;;;14.08;78.75;99629.81;5026278;28;20139;-70
2021/09/25 03:43:50;;;;;;;8.20;6.20;;;;;;;14.09;79.14;99617.38;5027807;28;20034;-71
2021/09/25 03:46:17;;;;;;;10.68;7.45;;;;;;;14.10;78.16;99619.06;5026600;28;20026;-71
2021/09/25 03:48:42;;;;;;;9.88;5.90;;;;;;;14.09;78.60;99623.53;5028267;28;20053;-70
2021/09/25 03:51:07;;;;;;;8.00;5.65;;;;;;;14.06;78.70;99629.06;5046599;28;20037;-69
2021/09/25 03:53:33;;;;;;;7.72;6.53;;;;;;;14.06;78.75;99625.56;5051987;28;20041;-70
2021/09/25 03:55:58;;;;;;;10.57;7.10;;;;;;;14.05;78.55;99631.78;5051676;28;20043;-70
2021/09/25 03:58:23;;;;;;;11.20;7.00;;;;;;;14.01;78.95;99630.31;5051644;28;20121;-70
2021/09/25 04:00:49;;;;;;;9.05;6.53;;;;;;;13.92;79.20;99635.25;5052514;28;20480;-70
2021/09/25 04:03:14;;;;;;;8.52;6.07;;;;;;;13.89;78.75;99629.31;5051227;28;20061;-71
2021/09/25 04:05:40;;;;;;;11.00;6.63;;;;;;;13.83;79.77;99629.69;5051655;28;20428;-70
2021/09/25 04:08:06;;;;;;;9.10;6.55;;;;;;;13.76;79.53;99626.63;5050653;28;20488;-69
2021/09/25 04:10:31;;;;;;;11.57;6.18;;;;;;;13.69;79.72;99625.31;5051075;28;20091;-69
2021/09/25 04:12:57;;;;;;;7.82;5.95;;;;;;;13.73;80.07;99629.44;5050680;28;20057;-70
2021/09/25 04:15:23;;;;;;;11.52;7.47;;;;;;;13.78;79.29;99626.50;5051875;28;20116;-71
2021/09/25 04:17:49;;;;;;;8.63;6.20;;;;;;;13.73;79.92;99637.41;5050815;28;20059;-69
2021/09/25 04:20:15;;;;;;;7.25;5.65;;;;;;;13.67;79.96;99633.34;5051351;28;20040;-70
2021/09/25 04:22:40;;;;;;;10.60;6.50;;;;;;;13.64;80.04;99632.72;5051664;28;20598;-70
2021/09/25 04:25:06;;;;;;;9.52;5.75;;;;;;;13.60;80.37;99634.69;5051373;28;20104;-70
2021/09/25 04:27:32;;;;;;;8.35;5.85;;;;;;;13.57;80.23;99632.25;5050920;28;20041;-70
2021/09/25 04:29:59;;;;;;;9.73;6.65;;;;;;;13.55;80.36;99630.66;5051232;28;20116;-70
2021/09/25 04:32:25;;;;;;;10.60;6.97;;;;;;;13.50;80.61;99630.94;5048566;28;20044;-70
2021/09/25 04:34:51;;;;;;;8.10;6.10;;;;;;;13.46;80.87;99630.28;5051321;28;20399;-70
2021/09/25 04:37:17;;;;;;;8.63;5.60;;;;;;;13.46;80.62;99624.13;5049549;28;20116;-71
2021/09/25 04:39:42;;;;;;;8.70;6.15;;;;;;;13.46;80.20;99621.47;5051091;28;20055;-70
2021/09/25 04:42:07;;;;;;;7.75;5.70;;;;;;;13.47;80.31;99615.25;5050208;28;20517;-71
2021/09/25 04:44:33;;;;;;;8.90;6.72;;;;;;;13.48;80.63;99614.28;5049431;28;20160;-70
2021/09/25 04:46:58;;;;;;;7.93;5.53;;;;;;;13.48;81.11;99609.00;5050697;28;20443;-70
2021/09/25 04:49:24;;;;;;;7.93;6.03;;;;;;;13.52;80.93;99615.81;5051215;28;20400;-70
2021/09/25 04:51:49;;;;;;;11.50;7.80;;;;;;;13.55;80.10;99620.06;5047912;28;20036;-70
2021/09/25 04:54:14;;;;;;;14.77;8.30;;;;;;;13.49;79.76;99619.50;5046693;28;20061;-70
2021/09/25 04:56:40;;;;;;;9.23;6.75;;;;;;;13.45;80.29;99612.69;5047767;28;20488;-72
2021/09/25 04:59:05;;;;;;;9.88;5.82;;;;;;;13.47;80.42;99617.91;5048837;28;20036;-69
2021/09/25 05:01:31;;;;;;;7.65;5.85;;;;;;;13.47;80.84;99615.25;5046920;28;20048;-71
2021/09/25 05:03:58;;;;;;;10.43;6.35;;;;;;;13.46;80.45;99619.69;5045960;28;20033;-70
2021/09/25 05:06:23;;;;;;;9.75;6.22;;;;;;;13.45;80.19;99620.63;5048246;28;20049;-70
2021/09/25 05:08:48;;;;;;;15.05;6.93;;;;;;;13.41;80.74;99620.91;5050397;28;20036;-70
2021/09/25 05:11:13;;;;;;;10.07;7.53;;;;;;;13.45;80.75;99617.97;5049884;28;20029;-69
2021/09/25 05:13:39;;;;;;;8.63;5.40;;;;;;;13.49;80.70;99611.56;5032667;28;20069;-70
2021/09/25 05:16:05;;;;;;;9.55;6.05;;;;;;;13.57;80.25;99624.28;5050113;28;20179;-70
2021/09/25 05:18:30;;;;;;;9.63;6.00;;;;;;;13.57;80.25;99619.00;5049168;28;20048;-70
2021/09/25 05:20:55;;;;;;;8.82;6.30;;;;;;;13.59;80.17;99621.56;5050377;28;20123;-70
2021/09/25 05:23:21;;;;;;;13.07;6.38;;;;;;;13.63;79.28;99625.69;5051438;28;20187;-71
2021/09/25 05:25:46;;;;;;;8.95;6.40;;;;;;;13.63;79.49;99631.84;5050495;28;20040;-70
2021/09/25 05:28:12;;;;;;;20.10;7.65;;;;;;;13.60;79.44;99631.19;5050325;28;20036;-70
2021/09/25 05:30:38;;;;;;;7.95;5.60;;;;;;;13.53;79.76;99628.94;5050528;28;20044;-70
2021/09/25 05:33:07;;;;;;;9.25;5.88;;;;;;;13.52;80.08;99635.19;5049580;28;20039;-70
2021/09/25 05:35:32;;;;;;;9.10;6.45;;;;;;;13.49;80.21;99632.75;5050075;28;20520;-70
2021/09/25 05:37:57;;;;;;;9.93;7.35;;;;;;;13.50;79.91;99630.94;5050190;28;20065;-71
2021/09/25 05:40:23;;;;;;;10.40;6.65;;;;;;;13.44;79.90;99626.88;5050599;28;20135;-71
2021/09/25 05:42:48;;;;;;;7.55;6.25;;;;;;;13.53;80.29;99622.78;5049474;28;20508;-70
2021/09/25 05:45:16;;;;;;;9.48;6.75;;;;;;;13.62;79.37;99629.31;5049946;28;20029;-71
2021/09/25 05:47:42;;;;;;;7.78;5.47;;;;;;;13.67;79.42;99624.56;5048441;28;20625;-71
2021/09/25 05:50:08;;;;;;;10.50;5.97;;;;;;;13.70;78.83;99634.94;5050265;28;20037;-70
2021/09/25 05:52:33;;;;;;;19.63;7.85;;;;;;;13.61;78.81;99630.25;5044188;28;20041;-70
2021/09/25 05:54:58;;;;;;;10.57;6.50;;;;;;;13.57;78.90;99628.75;5048885;28;20113;-71
2021/09/25 05:57:23;;;;;;;28.40;17.98;;;;;;;13.50;79.67;99628.28;5052951;28;20044;-71
2021/09/25 05:59:49;;;;;;;9.10;6.43;;;;;;;13.45;79.84;99633.88;5052463;28;20040;-71
2021/09/25 06:02:14;;;;;;;9.43;6.22;;;;;;;13.40;79.98;99635.97;5050952;28;20044;-71
2021/09/25 06:04:39;;;;;;;10.43;6.78;;;;;;;13.40;79.84;99632.47;5048918;28;20047;-71
2021/09/25 06:07:07;;;;;;;9.98;6.78;;;;;;;13.39;79.72;99642.22;5049481;28;20041;-70
2021/09/25 06:09:33;;;;;;;10.60;7.05;;;;;;;13.42;80.29;99642.00;5050428;28;20048;-71
2021/09/25 06:11:58;;;;;;;10.35;7.57;;;;;;;13.37;80.47;99643.25;5048304;28;20116;-73
2021/09/25 06:14:23;;;;;;;9.15;5.70;;;;;;;13.45;80.21;99646.28;5049961;28;20040;-70
2021/09/25 06:16:49;;;;;;;8.45;6.65;;;;;;;13.47;80.35;99636.44;5039375;28;20133;-70
2021/09/25 06:19:15;;;;;;;8.48;5.68;;;;;;;13.49;80.68;99639.84;5058581;28;20097;-70
2021/09/25 06:21:41;;;;;;;7.00;5.90;;;;;;;13.49;80.92;99638.03;5048539;28;20044;-71
2021/09/25 06:24:07;;;;;;;9.65;6.15;;;;;;;13.56;80.80;99637.63;5049054;28;20041;-71
2021/09/25 06:26:33;;;;;;;10.27;7.07;;;;;;;13.61;80.58;99636.41;5048705;28;20037;-71
2021/09/25 06:28:58;;;;;;;7.93;6.30;;;;;;;13.65;80.80;99643.19;5051259;28;20026;-71
2021/09/25 06:31:23;;;;;;;9.65;6.13;;;;;;;13.72;80.96;99641.84;5050401;28;20607;-71
2021/09/25 06:33:49;;;;;;;11.20;6.50;;;;;;;13.80;80.82;99648.44;5034063;28;20139;-72
2021/09/25 06:36:15;;;;;;;11.88;6.05;;;;;;;13.87;80.64;99655.91;5032931;28;20029;-69
2021/09/25 06:38:40;;;;;;;11.13;6.53;;;;;;;13.95;80.62;99643.03;5034249;28;20091;-70
2021/09/25 06:41:06;;;;;;;9.10;6.20;;;;;;;14.05;80.78;99642.41;5050925;28;20048;-70
2021/09/25 06:43:33;;;;;;;9.25;7.30;;;;;;;14.13;79.86;99648.91;5052792;28;20041;-70
2021/09/25 06:45:58;;;;;;;11.75;6.00;;;;;;;14.23;79.72;99651.78;5045537;28;20025;-71
2021/09/25 06:48:23;;;;;;;12.20;6.63;;;;;;;14.33;79.76;99650.22;5030470;28;20037;-71
2021/09/25 06:50:49;;;;;;;9.18;5.90;;;;;;;14.44;79.44;99652.16;5027736;28;20152;-71
2021/09/25 06:53:15;;;;;;;8.02;6.32;;;;;;;14.58;79.24;99653.91;5028608;28;20608;-71
2021/09/25 06:55:40;;;;;;;11.95;7.88;;;;;;;14.65;79.19;99657.00;5028995;28;20029;-70
2021/09/25 06:58:06;;;;;;;11.88;8.52;;;;;;;14.73;78.49;99657.31;5027451;28;20041;-71
2021/09/25 07:00:33;;;;;;;11.32;7.65;;;;;;;14.82;78.09;99651.38;5027209;28;20485;-72
2021/09/25 07:02:59;;;;;;;9.15;7.18;;;;;;;14.91;77.91;99652.53;5028187;28;20112;-71
2021/09/25 07:05:24;;;;;;;13.88;8.05;;;;;;;15.02;77.82;99650.00;5030566;28;20452;-71
2021/09/25 07:07:50;;;;;;;11.55;8.32;;;;;;;15.11;77.10;99649.38;5027563;28;20033;-71
2021/09/25 07:10:16;;;;;;;12.55;8.25;;;;;;;15.16;76.83;99649.00;5027354;28;20038;-71
2021/09/25 07:12:43;;;;;;;9.27;7.03;;;;;;;15.25;76.92;99649.22;5027911;28;20103;-71
2021/09/25 07:15:09;;;;;;;9.43;7.03;;;;;;;15.36;76.48;99655.59;5027661;28;20574;-71
2021/09/25 07:17:35;;;;;;;12.35;8.15;;;;;;;15.42;76.14;99656.00;5028994;28;20038;-70
2021/09/25 07:20:00;;;;;;;8.85;7.13;;;;;;;15.52;75.88;99648.22;5029790;28;20048;-71
2021/09/25 07:22:26;;;;;;;12.10;7.47;;;;;;;15.60;75.33;99655.63;5041500;28;20040;-71
2021/09/25 07:24:54;;;;;;;11.32;8.48;;;;;;;15.63;75.07;99652.78;5048515;28;20029;-71
2021/09/25 07:27:21;;;;;;;9.45;6.93;;;;;;;15.71;75.12;99653.09;5051823;28;20175;-71
2021/09/25 07:29:48;;;;;;;8.45;6.18;;;;;;;15.78;74.72;99648.19;5052390;28;20032;-72
2021/09/25 07:32:14;;;;;;;9.88;7.38;;;;;;;15.87;74.51;99645.69;5053500;28;20033;-71
2021/09/25 07:34:39;;;;;;;11.68;6.47;;;;;;;16.02;74.44;99650.81;5053708;28;20032;-72
2021/09/25 07:37:04;;;;;;;10.32;6.13;;;;;;;16.15;74.30;99651.63;5054907;28;20029;-70
2021/09/25 07:39:32;;;;;;;11.40;6.65;;;;;;;16.24;73.49;99655.38;5054831;28;20047;-71
2021/09/25 07:41:58;;;;;;;9.52;6.32;;;;;;;16.37;72.81;99653.53;5053268;28;20052;-71
2021/09/25 07:44:23;;;;;;;9.25;6.40;;;;;;;16.48;72.41;99650.88;5052265;28;20060;-71
2021/09/25 07:46:49;;;;;;;8.75;7.05;;;;;;;16.60;72.18;99653.59;5034209;28;20092;-71
2021/09/25 07:49:14;;;;;;;13.60;7.95;;;;;;;16.70;71.60;99658.06;5052100;28;20036;-71
2021/09/25 07:51:40;;;;;;;13.20;8.75;;;;;;;16.83;71.04;99662.50;5049586;28;20051;-71
2021/09/25 07:54:06;;;;;;;9.88;6.63;;;;;;;16.92;71.28;99665.28;5051514;28;20040;-72
2021/09/25 07:56:32;;;;;;;9.50;6.10;;;;;;;17.05;70.93;99667.00;5051999;28;20051;-71
2021/09/25 07:58:57;;;;;;;8.32;5.75;;;;;;;17.19;70.95;99668.59;5051966;28;20037;-72
2021/09/25 08:01:23;;;;;;;10.15;6.03;;;;;;;17.28;70.00;99670.53;5048052;28;20061;-71
2021/09/25 08:03:48;;;;;;;8.63;5.55;;;;;;;17.39;69.46;99668.69;5033898;28;20052;-72
2021/09/25 08:06:13;;;;;;;8.73;5.85;;;;;;;17.57;68.77;99668.19;5051410;28;20033;-71
2021/09/25 08:08:39;;;;;;;7.68;5.50;;;;;;;17.80;68.58;99680.56;5050706;28;20125;-71
2021/09/25 08:11:06;;;;;;;10.80;5.93;;;;;;;17.91;67.58;99687.69;5050888;28;20543;-71
2021/09/25 08:13:31;;;;;;;8.43;5.22;;;;;;;18.16;67.29;99686.53;5050256;28;20048;-71
2021/09/25 08:15:57;;;;;;;7.00;5.70;;;;;;;18.38;65.59;99684.75;5050173;28;20437;-70
2021/09/25 08:18:22;;;;;;;7.90;5.82;;;;;;;18.47;64.94;99689.31;5051072;28;20028;-71
2021/09/25 08:20:48;;;;;;;5.72;4.72;;;;;;;18.59;64.94;99693.63;5052783;28;20436;-71
2021/09/25 08:23:13;;;;;;;10.48;5.47;;;;;;;18.74;64.46;99685.31;5049969;28;20063;-71
2021/09/25 08:25:39;;;;;;;8.82;6.07;;;;;;;18.75;64.08;99687.00;5050174;28;20619;-71
2021/09/25 08:28:04;;;;;;;9.50;7.05;;;;;;;18.90;63.77;99691.06;5050870;28;20041;-71
2021/09/25 08:30:30;;;;;;;7.15;5.82;;;;;;;19.26;62.71;99683.53;5050316;28;20099;-70
2021/09/25 08:32:57;;;;;;;11.93;7.53;;;;;;;19.45;61.23;99694.31;5050440;28;20078;-71
2021/09/25 08:35:23;;;;;;;7.55;5.13;;;;;;;19.52;60.78;99690.09;5049596;28;20043;-71
2021/09/25 08:37:49;;;;;;;9.25;5.53;;;;;;;19.63;60.84;99688.31;5050387;28;21298;-71
2021/09/25 08:40:19;;;;;;;10.27;6.57;;;;;;;20.01;59.29;99692.94;5050898;28;20098;-71
2021/09/25 08:42:44;;;;;;;10.40;5.85;;;;;;;20.41;58.29;99689.31;5049038;28;20070;-71
2021/09/25 08:45:10;;;;;;;9.02;5.72;;;;;;;20.61;57.04;99687.50;5049461;28;20460;-71
2021/09/25 08:47:35;;;;;;;8.30;5.45;;;;;;;20.76;56.00;99685.22;5049353;28;20045;-72
2021/09/25 08:50:01;;;;;;;8.18;4.97;;;;;;;20.71;55.72;99691.00;5051073;28;20044;-70
2021/09/25 08:52:29;;;;;;;6.68;5.32;;;;;;;20.80;55.85;99690.16;5050230;28;20044;-70
2021/09/25 08:54:54;;;;;;;6.82;4.85;;;;;;;20.82;55.57;99694.53;5048549;28;20025;-69
2021/09/25 08:57:20;;;;;;;7.57;4.53;;;;;;;20.90;54.91;99686.63;5050495;28;20430;-71
2021/09/25 08:59:45;;;;;;;5.20;4.55;;;;;;;21.04;54.28;99688.81;5040535;28;20059;-71
2021/09/25 09:02:19;;;;;;;5.97;4.55;;;;;;;21.51;53.05;99688.84;5049757;28;20116;-70
2021/09/25 09:04:50;;;;;;;6.65;5.03;;;;;;;22.28;51.21;99689.41;5010718;28;20060;-68
2021/09/25 09:07:21;;;;;;;7.05;4.35;;;;;;;22.84;48.85;99692.72;5010400;28;20505;-71
2021/09/25 09:09:47;;;;;;;8.07;4.53;;;;;;;23.55;47.31;99694.34;5020057;28;20033;-70
2021/09/25 09:12:14;;;;;;;6.40;4.20;;;;;;;24.24;45.89;99687.00;5016067;28;20133;-70
2021/09/25 09:14:47;;;;;;;6.85;4.10;;;;;;;24.93;43.69;99692.94;5006889;28;20091;-71
2021/09/25 09:17:15;;;;;;;6.15;4.38;;;;;;;25.44;41.90;99696.22;5022652;28;20026;-70
2021/09/25 09:19:41;;;;;;;5.97;4.07;;;;;;;26.10;40.46;99687.88;5027674;28;20400;-73
2021/09/25 09:22:07;;;;;;;5.47;4.13;;;;;;;26.67;39.04;99695.56;5030666;28;20084;-71
2021/09/25 09:24:48;;;;;;;10.00;5.05;;;;;;;27.15;38.11;99692.63;5032192;28;20037;-71
2021/09/25 09:27:16;;;;;;;8.05;4.60;;;;;;;27.55;38.17;99691.31;5033421;28;20037;-76
2021/09/25 09:29:42;;;;;;;8.05;5.03;;;;;;;27.80;37.58;99694.56;5031967;28;20120;-73
2021/09/25 09:32:09;;;;;;;7.28;6.13;;;;;;;28.04;37.20;99689.88;5030289;28;20037;-69
2021/09/25 09:34:36;;;;;;;11.32;5.47;;;;;;;28.41;36.37;99683.38;5030557;28;20033;-71
2021/09/25 09:37:14;;;;;;;8.60;5.10;;;;;;;28.58;36.08;99683.16;5030938;28;20036;-68
2021/09/25 09:39:39;;;;;;;7.93;5.68;;;;;;;28.64;35.87;99685.06;5029514;28;20545;-69
2021/09/25 09:42:05;;;;;;;11.57;6.25;;;;;;;28.85;35.40;99682.34;5028420;28;20053;-71
2021/09/25 09:44:31;;;;;;;9.05;5.35;;;;;;;28.93;34.85;99677.81;5028440;28;20167;-71
2021/09/25 09:46:59;;;;;;;8.15;6.03;;;;;;;29.11;34.68;99681.72;5028792;28;20393;-70
2021/09/25 09:49:29;;;;;;;7.90;5.70;;;;;;;29.16;34.39;99669.41;5028734;28;20049;-70
2021/09/25 09:51:56;;;;;;;11.52;6.32;;;;;;;29.20;34.92;99673.44;5027501;28;20045;-70
2021/09/25 09:54:25;;;;;;;6.13;4.68;;;;;;;29.26;34.45;99665.28;5030507;28;20083;-70
2021/09/25 09:56:54;;;;;;;7.93;6.03;;;;;;;29.38;33.96;99653.88;5029484;28;20038;-70
2021/09/25 09:59:20;;;;;;;6.65;5.50;;;;;;;29.47;33.93;99664.38;5029043;28;22752;-70
2021/09/25 10:01:46;;;;;;;6.63;5.35;;;;;;;29.61;33.31;99664.44;5028085;28;20037;-70
2021/09/25 10:04:12;;;;;;;8.05;5.78;;;;;;;29.75;32.78;99656.16;5028211;28;20029;-70
2021/09/25 10:06:38;;;;;;;6.88;4.47;;;;;;;30.02;32.36;99664.41;5029553;28;20033;-72
2021/09/25 10:09:10;;;;;;;6.78;5.03;;;;;;;30.12;31.97;99662.13;5024055;28;20045;-70
2021/09/25 10:11:37;;;;;;;7.18;5.00;;;;;;;30.07;32.09;99653.75;5028385;28;20060;-70
2021/09/25 10:14:05;;;;;;;13.77;4.90;;;;;;;30.23;31.95;99660.69;5027857;28;20055;-70
2021/09/25 10:16:31;;;;;;;7.18;4.47;;;;;;;30.30;31.93;99655.28;5029466;28;20037;-71
2021/09/25 10:18:56;;;;;;;7.57;4.50;;;;;;;30.12;32.07;99653.97;5029125;28;20037;-71
2021/09/25 10:21:24;;;;;;;5.20;3.55;;;;;;;30.08;31.37;99654.59;5028306;28;20117;-70
2021/09/25 10:24:00;;;;;;;5.72;3.35;;;;;;;30.11;31.41;99654.19;5029021;28;20432;-70
2021/09/25 10:26:27;;;;;;;3.92;2.90;;;;;;;29.96;31.74;99648.94;5029200;28;20033;-70
2021/09/25 10:28:58;;;;;;;4.82;3.10;;;;;;;29.74;31.81;99646.34;5027736;28;20037;-70
2021/09/25 10:31:24;;;;;;;6.65;3.60;;;;;;;29.03;32.25;99646.53;5028446;28;20088;-70
2021/09/25 10:34:18;;;;;;;6.47;3.30;;;;;;;28.40;34.17;99651.03;5029365;28;20033;-69
2021/09/25 10:36:48;;;;;;;4.47;3.50;;;;;;;27.51;35.33;99649.41;5028126;28;20044;-70
2021/09/25 10:39:35;;;;;;;5.20;3.92;;;;;;;27.15;35.88;99646.59;5028498;28;20072;-70
2021/09/25 10:42:06;;;;;;;4.70;3.20;;;;;;;26.76;36.49;99645.81;5029840;28;20037;-69
2021/09/25 10:44:34;;;;;;;5.47;3.47;;;;;;;26.49;36.44;99644.50;5028707;28;20124;-70
2021/09/25 10:47:06;;;;;;;5.45;3.08;;;;;;;26.07;37.47;99643.13;5028764;28;20033;-71
2021/09/25 10:49:47;;;;;;;5.88;3.70;;;;;;;25.53;38.96;99647.63;5028652;28;20116;-70
2021/09/25 10:52:15;;;;;;;6.43;3.63;;;;;;;25.17;40.41;99642.69;5028082;28;20521;-71
2021/09/25 10:54:42;;;;;;;4.07;3.67;;;;;;;24.92;39.40;99636.50;5028329;28;20569;-68
2021/09/25 10:57:15;;;;;;;3.83;2.70;;;;;;;24.76;39.04;99634.66;5028253;28;20083;-69
2021/09/25 11:00:31;;;;;;;5.20;3.28;;;;;;;24.51;40.77;99629.28;5028259;28;20034;-70
2021/09/25 11:02:57;;;;;;;3.88;3.05;;;;;;;24.33;41.63;99625.91;5020945;28;20135;-70
2021/09/25 11:06:02;;;;;;;5.18;3.38;;;;;;;24.00;42.50;99615.94;5046639;28;20439;-70
2021/09/25 11:08:31;;;;;;;5.83;3.83;;;;;;;23.92;42.65;99623.16;5023472;28;20502;-71
2021/09/25 11:11:14;;;;;;;6.38;4.15;;;;;;;23.85;42.82;99617.63;5045700;28;20041;-71
2021/09/25 11:14:01;;;;;;;8.75;3.42;;;;;;;23.88;43.48;99616.44;5019634;28;20631;-71
2021/09/25 11:17:15;;;;;;;5.85;3.67;;;;;;;23.90;43.17;99617.97;5028296;28;20042;-70
2021/09/25 11:20:01;;;;;;;12.02;4.35;;;;;;;23.83;43.55;99610.72;5023436;28;20529;-69
2021/09/25 11:22:33;;;;;;;12.57;4.30;;;;;;;23.75;44.54;99616.88;5028015;28;20036;-69
2021/09/25 11:25:08;;;;;;;6.93;3.38;;;;;;;23.76;44.58;99603.28;5028587;28;20117;-70
2021/09/25 11:27:45;;;;;;;5.82;3.10;;;;;;;23.80;44.09;99603.81;5028891;28;20033;-70
2021/09/25 11:30:20;;;;;;;4.13;3.53;;;;;;;23.76;43.31;99603.28;5029695;28;20037;-70